createdAt,value
2018-02-22T00:01:30.349Z,71.35
2018-02-22T00:03:58.466Z,71.22
2018-02-22T00:06:26.579Z,71.77
2018-02-22T00:08:54.709Z,72.04
2018-02-22T00:11:22.841Z,71.69
2018-02-22T00:13:50.969Z,71.26
2018-02-22T00:16:19.072Z,71.69
2018-02-22T00:18:47.198Z,71.33
2018-02-22T00:21:15.306Z,71.49
2018-02-22T00:23:43.421Z,71.06
2018-02-22T00:26:11.542Z,71.38
2018-02-22T00:28:39.651Z,71.19
2018-02-22T00:31:07.762Z,72.33
2018-02-22T00:33:35.895Z,71.26
2018-02-22T00:36:03.992Z,71.72
2018-02-22T00:38:32.226Z,71.44
2018-02-22T00:41:00.361Z,71.77
2018-02-22T00:43:28.474Z,71.44
2018-02-22T00:45:56.589Z,72.21
2018-02-22T00:48:24.687Z,72.14
2018-02-22T00:50:52.836Z,71.98
2018-02-22T00:53:20.960Z,72.56
2018-02-22T00:55:49.071Z,71.69
2018-02-22T00:58:17.186Z,72.25
2018-02-22T01:00:45.300Z,72.17
2018-02-22T01:03:13.428Z,72.47
2018-02-22T01:05:41.553Z,72.07
2018-02-22T01:08:09.654Z,72.75
2018-02-22T01:10:37.782Z,71.73
2018-02-22T01:13:05.901Z,72.19
2018-02-22T01:15:34.026Z,72.84
2018-02-22T01:18:02.125Z,73.37
2018-02-22T01:20:30.253Z,73.42
2018-02-22T01:22:58.384Z,73.92
2018-02-22T01:25:26.505Z,73.80
2018-02-22T01:27:54.631Z,73.49
2018-02-22T01:30:22.753Z,72.38
2018-02-22T01:32:50.870Z,73.28
2018-02-22T01:35:18.983Z,72.68
2018-02-22T01:37:47.127Z,72.34
2018-02-22T01:40:15.236Z,71.17
2018-02-22T01:42:43.360Z,72.13
2018-02-22T01:45:11.490Z,71.61
2018-02-22T01:47:39.599Z,71.64
2018-02-22T01:50:07.743Z,71.77
2018-02-22T01:52:35.869Z,71.18
2018-02-22T01:55:03.993Z,71.06
2018-02-22T01:57:32.128Z,70.77
2018-02-22T02:00:00.272Z,70.53
2018-02-22T02:02:28.388Z,70.81
2018-02-22T02:04:56.521Z,69.65
2018-02-22T02:07:24.634Z,70.56
2018-02-22T02:09:52.752Z,69.94
2018-02-22T02:12:20.887Z,70.21
2018-02-22T02:14:49.006Z,70.35
2018-02-22T02:17:17.205Z,70.02
2018-02-22T02:19:45.331Z,69.95
2018-02-22T02:22:13.576Z,70.15
2018-02-22T02:24:41.866Z,69.69
2018-02-22T02:27:10.033Z,69.55
2018-02-22T02:29:38.177Z,70.49
2018-02-22T02:32:06.316Z,70.16
2018-02-22T02:34:34.441Z,70.12
2018-02-22T02:37:02.582Z,70.77
2018-02-22T02:39:30.680Z,71.22
2018-02-22T02:41:58.845Z,70.95
2018-02-22T02:44:26.962Z,70.19
2018-02-22T02:46:55.124Z,70.45
2018-02-22T02:49:23.285Z,71.09
2018-02-22T02:51:51.409Z,70.50
2018-02-22T02:54:19.526Z,69.74
2018-02-22T02:56:47.664Z,70.73
2018-02-22T02:59:15.789Z,70.82
2018-02-22T03:01:43.907Z,70.77
2018-02-22T03:04:12.019Z,70.88
2018-02-22T03:06:40.135Z,71.12
2018-02-22T03:09:08.250Z,70.67
2018-02-22T03:11:36.381Z,70.73
2018-02-22T03:14:04.521Z,70.73
2018-02-22T03:16:32.631Z,70.24
2018-02-22T03:19:00.744Z,70.44
2018-02-22T03:21:28.870Z,69.57
2018-02-22T03:23:57.001Z,70.87
2018-02-22T03:26:25.123Z,70.38
2018-02-22T03:28:53.254Z,71.42
2018-02-22T03:31:21.381Z,70.60
2018-02-22T03:33:49.483Z,70.40
2018-02-22T03:36:17.610Z,70.02
2018-02-22T03:38:45.745Z,70.33
2018-02-22T03:41:13.869Z,70.77
2018-02-22T03:43:42.015Z,71.05
2018-02-22T03:46:10.142Z,70.61
2018-02-22T03:48:38.557Z,70.74
2018-02-22T03:51:06.656Z,71.08
2018-02-22T03:53:34.850Z,70.53
2018-02-22T03:56:02.982Z,71.09
2018-02-22T03:58:31.095Z,71.39
2018-02-22T04:00:59.220Z,71.34
2018-02-22T04:03:27.348Z,71.30
2018-02-22T04:05:55.482Z,71.39
2018-02-22T04:08:23.609Z,72.03
2018-02-22T04:10:51.725Z,71.39
2018-02-22T04:13:20.334Z,71.53
2018-02-22T04:15:48.441Z,71.94
2018-02-22T04:18:18.463Z,71.18
2018-02-22T04:20:46.575Z,70.88
2018-02-22T04:23:14.707Z,70.78
2018-02-22T04:25:42.829Z,70.91
2018-02-22T04:28:10.931Z,71.21
2018-02-22T04:30:39.053Z,71.62
2018-02-22T04:33:07.172Z,71.15
2018-02-22T04:35:35.316Z,70.76
2018-02-22T04:38:03.436Z,71.35
2018-02-22T04:40:31.539Z,72.13
2018-02-22T04:42:59.685Z,71.61
2018-02-22T04:45:27.790Z,71.61
2018-02-22T04:47:55.946Z,71.63
2018-02-22T04:50:24.066Z,71.60
2018-02-22T04:52:52.173Z,71.46
2018-02-22T04:55:20.284Z,71.99
2018-02-22T04:57:48.386Z,71.52
2018-02-22T05:00:16.503Z,72.05
2018-02-22T05:02:44.607Z,72.71
2018-02-22T05:05:12.719Z,71.78
2018-02-22T05:07:40.842Z,71.63
2018-02-22T05:10:09.116Z,71.68
2018-02-22T05:12:37.215Z,72.46
2018-02-22T05:15:05.373Z,72.00
2018-02-22T05:17:33.494Z,72.13
2018-02-22T05:20:01.623Z,72.33
2018-02-22T05:22:29.749Z,72.32
2018-02-22T05:24:57.890Z,72.10
2018-02-22T05:27:25.993Z,72.75
2018-02-22T05:29:54.137Z,72.35
2018-02-22T05:32:23.154Z,72.80
2018-02-22T05:34:51.283Z,72.35
2018-02-22T05:37:22.446Z,72.79
2018-02-22T05:39:50.575Z,72.20
2018-02-22T05:42:18.698Z,72.48
2018-02-22T05:44:46.808Z,72.88
2018-02-22T05:47:14.934Z,72.74
2018-02-22T05:49:43.061Z,72.97
2018-02-22T05:52:11.167Z,72.45
2018-02-22T05:54:39.274Z,73.07
2018-02-22T05:57:07.437Z,86.12
2018-02-22T05:59:35.539Z,72.90
2018-02-22T06:02:03.674Z,72.12
2018-02-22T06:04:31.798Z,73.35
2018-02-22T06:06:59.910Z,72.95
2018-02-22T06:09:28.045Z,73.66
2018-02-22T06:11:56.168Z,73.57
2018-02-22T06:14:24.301Z,73.89
2018-02-22T06:16:52.424Z,74.63
2018-02-22T06:19:20.580Z,74.98
2018-02-22T06:21:48.702Z,74.45
2018-02-22T06:24:16.854Z,73.35
2018-02-22T06:26:44.974Z,73.97
2018-02-22T06:29:13.110Z,74.57
2018-02-22T06:31:41.265Z,74.14
2018-02-22T06:34:09.395Z,73.84
2018-02-22T06:36:37.509Z,74.44
2018-02-22T06:39:05.646Z,73.68
2018-02-22T06:41:33.766Z,73.78
2018-02-22T06:44:01.902Z,73.38
2018-02-22T06:46:30.011Z,73.42
2018-02-22T06:48:58.134Z,74.11
2018-02-22T06:51:26.276Z,73.25
2018-02-22T06:53:54.375Z,74.64
2018-02-22T06:56:22.498Z,74.04
2018-02-22T06:58:50.633Z,73.81
2018-02-22T07:01:18.767Z,73.98
2018-02-22T07:03:46.874Z,74.22
2018-02-22T07:06:18.300Z,73.97
2018-02-22T07:08:46.420Z,74.59
2018-02-22T07:11:14.552Z,73.66
2018-02-22T07:13:42.685Z,73.03
2018-02-22T07:16:10.797Z,72.48
2018-02-22T07:18:38.916Z,72.74
2018-02-22T07:21:07.072Z,73.04
2018-02-22T07:23:35.210Z,72.50
2018-02-22T07:26:03.332Z,71.91
2018-02-22T07:28:31.485Z,71.86
2018-02-22T07:30:59.593Z,72.64
2018-02-22T07:33:27.758Z,72.36
2018-02-22T07:35:55.890Z,71.22
2018-02-22T07:38:24.011Z,70.63
2018-02-22T07:40:52.254Z,70.20
2018-02-22T07:43:20.385Z,69.15
2018-02-22T07:45:48.503Z,67.69
2018-02-22T07:48:16.623Z,68.34
2018-02-22T07:50:44.745Z,69.07
2018-02-22T07:53:12.865Z,67.64
2018-02-22T07:55:40.997Z,64.59
2018-02-22T07:58:09.120Z,62.49
2018-02-22T08:00:37.260Z,62.93
2018-02-22T08:03:05.378Z,63.67
2018-02-22T08:05:33.492Z,64.78
2018-02-22T08:08:01.616Z,63.87
2018-02-22T08:10:29.736Z,63.28
2018-02-22T08:12:57.871Z,61.80
2018-02-22T08:15:26.022Z,60.41
2018-02-22T08:17:54.195Z,61.00
2018-02-22T08:20:22.330Z,60.47
2018-02-22T08:22:50.471Z,59.59
2018-02-22T08:25:18.587Z,57.83
2018-02-22T08:27:46.729Z,59.02
2018-02-22T08:30:14.880Z,57.20
2018-02-22T08:32:43.071Z,58.62
2018-02-22T08:35:11.172Z,58.92
2018-02-22T08:37:39.299Z,57.86
2018-02-22T08:40:07.605Z,57.53
2018-02-22T08:42:35.938Z,56.79
2018-02-22T08:45:04.055Z,56.56
2018-02-22T08:47:32.181Z,57.33
2018-02-22T08:50:00.294Z,55.40
2018-02-22T08:52:31.504Z,55.39
2018-02-22T08:54:59.622Z,54.79
2018-02-22T08:57:27.741Z,54.47
2018-02-22T08:59:55.864Z,54.92
2018-02-22T09:02:23.981Z,55.50
2018-02-22T09:04:52.113Z,56.75
2018-02-22T09:07:20.244Z,57.58
2018-02-22T09:09:48.396Z,57.18
2018-02-22T09:12:16.524Z,58.23
2018-02-22T09:14:44.630Z,59.16
2018-02-22T09:17:12.764Z,58.49
2018-02-22T09:19:40.906Z,57.74
2018-02-22T09:22:09.022Z,57.73
2018-02-22T09:24:37.164Z,58.08
2018-02-22T09:27:05.281Z,56.94
2018-02-22T09:29:33.384Z,56.16
2018-02-22T09:32:01.535Z,56.66
2018-02-22T09:34:29.640Z,56.67
2018-02-22T09:36:57.777Z,55.22
2018-02-22T09:39:25.896Z,54.95
2018-02-22T09:41:54.030Z,56.42
2018-02-22T09:44:22.140Z,56.15
2018-02-22T09:46:50.275Z,56.02
2018-02-22T09:49:18.376Z,54.63
2018-02-22T09:51:46.538Z,54.85
2018-02-22T09:54:14.655Z,54.15
2018-02-22T09:56:45.983Z,54.46
2018-02-22T09:59:14.133Z,54.70
2018-02-22T10:01:42.321Z,55.16
2018-02-22T10:04:10.412Z,55.48
2018-02-22T10:06:38.539Z,55.39
2018-02-22T10:09:06.659Z,54.32
2018-02-22T10:11:34.762Z,54.89
2018-02-22T10:14:02.907Z,54.07
2018-02-22T10:16:31.043Z,54.36
2018-02-22T10:18:59.223Z,55.25
2018-02-22T10:21:27.361Z,53.62
2018-02-22T10:23:55.501Z,53.07
2018-02-22T10:26:23.618Z,54.49
2018-02-22T10:28:51.752Z,53.06
2018-02-22T10:31:23.088Z,53.16
2018-02-22T10:33:51.239Z,53.26
2018-02-22T10:36:19.388Z,53.34
2018-02-22T10:38:47.521Z,53.03
2018-02-22T10:41:15.678Z,53.71
2018-02-22T10:43:43.899Z,52.88
2018-02-22T10:46:12.121Z,54.31
2018-02-22T10:48:40.236Z,54.68
2018-02-22T10:51:08.400Z,54.13
2018-02-22T10:53:36.529Z,54.42
2018-02-22T10:56:06.577Z,54.25
2018-02-22T10:58:34.720Z,52.56
2018-02-22T11:01:08.373Z,52.09
2018-02-22T11:03:37.420Z,51.73
2018-02-22T11:06:05.551Z,51.81
2018-02-22T11:08:33.672Z,50.26
2018-02-22T11:11:01.796Z,51.13
2018-02-22T11:13:29.958Z,50.95
2018-02-22T11:16:01.072Z,50.87
2018-02-22T11:18:29.204Z,50.30
2018-02-22T11:20:57.341Z,51.55
2018-02-22T11:23:25.465Z,51.17
2018-02-22T11:25:53.600Z,50.31
2018-02-22T11:28:21.717Z,49.10
2018-02-22T11:30:49.934Z,48.67
2018-02-22T11:33:18.050Z,47.26
2018-02-22T11:35:46.171Z,48.48
2018-02-22T11:38:14.305Z,47.52
2018-02-22T11:40:42.417Z,46.35
2018-02-22T11:43:10.584Z,46.26
2018-02-22T11:45:38.715Z,46.60
2018-02-22T11:48:06.857Z,45.87
2018-02-22T11:50:34.988Z,46.73
2018-02-22T11:53:03.118Z,46.46
2018-02-22T11:55:31.223Z,47.07
2018-02-22T11:57:59.343Z,46.16
2018-02-22T12:00:27.474Z,46.69
2018-02-22T12:02:55.596Z,46.48
2018-02-22T12:05:23.717Z,46.49
2018-02-22T12:07:51.838Z,46.47
2018-02-22T12:10:23.180Z,45.85
2018-02-22T12:12:51.283Z,44.72
2018-02-22T12:15:19.418Z,44.74
2018-02-22T12:17:47.536Z,44.85
2018-02-22T12:20:15.656Z,44.42
2018-02-22T12:22:43.806Z,45.22
2018-02-22T12:25:11.903Z,44.34
2018-02-22T12:27:40.029Z,44.30
2018-02-22T12:30:08.179Z,44.22
2018-02-22T12:32:36.279Z,43.78
2018-02-22T12:35:05.337Z,43.68
2018-02-22T12:37:33.459Z,43.77
2018-02-22T12:40:01.579Z,44.76
2018-02-22T12:42:29.750Z,44.88
2018-02-22T12:44:57.859Z,44.16
2018-02-22T12:47:25.959Z,43.53
2018-02-22T12:49:54.091Z,43.05
2018-02-22T12:52:22.278Z,43.49
2018-02-22T12:54:50.399Z,42.81
2018-02-22T12:57:18.505Z,42.46
2018-02-22T12:59:46.637Z,42.51
2018-02-22T13:02:14.759Z,41.78
2018-02-22T13:04:42.870Z,41.83
2018-02-22T13:07:10.996Z,41.62
2018-02-22T13:09:39.097Z,41.55
2018-02-22T13:12:07.350Z,41.21
2018-02-22T13:14:35.477Z,40.81
2018-02-22T13:17:03.587Z,41.11
2018-02-22T13:19:31.706Z,42.01
2018-02-22T13:21:59.801Z,43.74
2018-02-22T13:24:27.908Z,43.42
2018-02-22T13:26:56.033Z,42.84
2018-02-22T13:29:24.165Z,43.40
2018-02-22T13:31:52.913Z,42.73
2018-02-22T13:34:35.910Z,43.67
2018-02-22T13:37:15.985Z,42.58
2018-02-22T13:39:44.102Z,42.71
2018-02-22T13:42:12.239Z,42.63
2018-02-22T13:44:52.322Z,42.96
2018-02-22T13:47:20.455Z,42.81
2018-02-22T13:50:00.560Z,41.87
2018-02-22T13:52:28.745Z,42.04
2018-02-22T13:54:56.857Z,41.19
2018-02-22T13:57:24.979Z,43.68
2018-02-22T13:59:53.091Z,44.17
2018-02-22T14:02:24.599Z,44.32
2018-02-22T14:04:52.720Z,43.40
2018-02-22T14:07:20.836Z,42.55
2018-02-22T14:09:48.942Z,43.30
2018-02-22T14:12:17.065Z,43.84
2018-02-22T14:14:45.195Z,43.32
2018-02-22T14:17:13.363Z,42.64
2018-02-22T14:19:41.436Z,42.80
2018-02-22T14:22:09.539Z,42.61
2018-02-22T14:24:37.644Z,42.12
2018-02-22T14:27:05.791Z,43.06
2018-02-22T14:29:33.888Z,43.05
2018-02-22T14:32:01.991Z,42.86
2018-02-22T14:34:30.633Z,42.35
2018-02-22T14:36:58.730Z,43.07
2018-02-22T14:39:26.845Z,43.26
2018-02-22T14:41:54.978Z,43.88
2018-02-22T14:44:23.073Z,44.00
2018-02-22T14:46:51.187Z,43.68
2018-02-22T14:49:19.309Z,43.58
2018-02-22T14:51:47.450Z,43.51
2018-02-22T14:54:15.565Z,43.74
2018-02-22T14:56:43.664Z,44.63
2018-02-22T14:59:13.701Z,44.46
2018-02-22T15:01:41.805Z,44.74
2018-02-22T15:04:09.908Z,45.03
2018-02-22T15:06:38.048Z,45.35
2018-02-22T15:09:06.159Z,45.94
2018-02-22T15:11:34.300Z,46.83
2018-02-22T15:14:02.465Z,46.59
2018-02-22T15:16:30.573Z,47.11
2018-02-22T15:18:58.689Z,46.04
2018-02-22T15:21:26.809Z,45.84
2018-02-22T15:23:55.055Z,46.04
2018-02-22T15:26:23.178Z,45.85
2018-02-22T15:28:51.300Z,46.18
2018-02-22T15:31:19.700Z,46.09
2018-02-22T15:33:47.833Z,46.34
2018-02-22T15:36:15.970Z,46.13
2018-02-22T15:38:44.092Z,46.91
2018-02-22T15:41:12.204Z,47.11
2018-02-22T15:43:40.342Z,47.15
2018-02-22T15:46:08.479Z,47.65
2018-02-22T15:48:36.697Z,47.98
2018-02-22T15:51:04.802Z,48.24
2018-02-22T15:53:32.936Z,48.66
2018-02-22T15:56:01.045Z,49.03
2018-02-22T15:58:29.176Z,49.58
2018-02-22T16:00:57.301Z,50.33
2018-02-22T16:03:25.432Z,50.47
2018-02-22T16:05:53.544Z,50.78
2018-02-22T16:08:21.650Z,50.78
2018-02-22T16:10:49.776Z,50.18
2018-02-22T16:13:18.014Z,50.10
2018-02-22T16:15:46.145Z,49.98
2018-02-22T16:18:14.331Z,50.36
2018-02-22T16:20:42.444Z,51.95
2018-02-22T16:23:10.573Z,51.81
2018-02-22T16:25:38.699Z,52.90
2018-02-22T16:28:06.825Z,52.51
2018-02-22T16:30:34.966Z,53.31
2018-02-22T16:33:03.114Z,53.40
2018-02-22T16:35:31.242Z,53.72
2018-02-22T16:37:59.374Z,54.35
2018-02-22T16:40:27.578Z,54.04
2018-02-22T16:42:55.682Z,54.40
2018-02-22T16:45:27.434Z,54.43
2018-02-22T16:47:55.564Z,54.26
2018-02-22T16:50:23.696Z,54.36
2018-02-22T16:52:51.806Z,54.54
2018-02-22T16:55:19.923Z,54.76
2018-02-22T16:57:51.228Z,54.83
2018-02-22T17:00:19.355Z,54.82
2018-02-22T17:02:47.490Z,54.49
2018-02-22T17:05:15.600Z,55.25
2018-02-22T17:07:43.739Z,55.86
2018-02-22T17:10:11.862Z,55.74
2018-02-22T17:12:39.982Z,55.85
2018-02-22T17:15:08.116Z,55.86
2018-02-22T17:17:45.216Z,55.91
2018-02-22T17:20:13.336Z,55.92
2018-02-22T17:22:41.439Z,56.12
2018-02-22T17:25:09.567Z,56.01
2018-02-22T17:27:43.325Z,56.16
2018-02-22T17:30:17.035Z,55.65
2018-02-22T17:32:45.229Z,56.40
2018-02-22T17:38:38.211Z,55.63
2018-02-22T17:41:06.346Z,56.13
2018-02-22T17:43:34.479Z,55.35
2018-02-22T17:46:02.591Z,55.53
2018-02-22T17:48:30.733Z,55.56
2018-02-22T17:50:58.906Z,56.04
2018-02-22T17:53:27.026Z,55.77
2018-02-22T17:55:55.277Z,55.78
2018-02-22T17:58:23.773Z,55.78
2018-02-22T18:01:03.742Z,55.26
2018-02-22T18:03:31.837Z,55.88
2018-02-22T18:05:59.949Z,56.10
2018-02-22T18:08:28.093Z,55.84
2018-02-22T18:10:56.218Z,55.63
2018-02-22T18:13:24.354Z,55.79
2018-02-22T18:15:52.460Z,56.31
2018-02-22T18:18:20.595Z,55.72
2018-02-22T18:20:48.733Z,56.26
2018-02-22T18:23:16.960Z,57.05
2018-02-22T18:25:45.154Z,56.69
2018-02-22T18:28:13.284Z,56.59
2018-02-22T18:30:41.430Z,56.62
2018-02-22T18:33:09.568Z,57.20
2018-02-22T18:35:37.785Z,56.92
2018-02-22T18:38:05.931Z,56.82
2018-02-22T18:40:39.631Z,57.04
2018-02-22T18:43:13.471Z,57.12
2018-02-22T18:45:41.581Z,57.18
2018-02-22T18:48:09.704Z,57.13
2018-02-22T18:50:37.828Z,56.81
2018-02-22T18:53:05.956Z,57.12
2018-02-22T18:55:34.068Z,56.69
2018-02-22T18:58:02.171Z,56.85
2018-02-22T19:00:30.397Z,57.36
2018-02-22T19:03:01.444Z,57.74
2018-02-22T19:05:33.252Z,57.46
2018-02-22T19:08:01.338Z,57.74
2018-02-22T19:10:29.453Z,57.80
2018-02-22T19:12:57.568Z,56.99
2018-02-22T19:15:25.687Z,58.07
2018-02-22T19:17:53.816Z,57.51
2018-02-22T19:20:21.941Z,57.03
2018-02-22T19:22:53.674Z,57.82
2018-02-22T19:25:21.808Z,57.36
2018-02-22T19:27:49.937Z,56.99
2018-02-22T19:30:18.035Z,56.83
2018-02-22T19:32:46.212Z,57.22
2018-02-22T19:35:14.333Z,57.38
2018-02-22T19:37:42.463Z,57.24
2018-02-22T19:40:10.569Z,57.49
2018-02-22T19:42:38.679Z,57.53
2018-02-22T19:45:06.818Z,57.19
2018-02-22T19:47:34.944Z,57.20
2018-02-22T19:50:03.065Z,56.96
2018-02-22T19:52:31.181Z,56.94
2018-02-22T19:54:59.326Z,57.00
2018-02-22T19:57:27.451Z,57.85
2018-02-22T19:59:55.599Z,57.31
2018-02-22T20:02:23.729Z,56.61
2018-02-22T20:04:51.856Z,56.08
2018-02-22T20:07:19.961Z,56.54
2018-02-22T20:09:48.076Z,57.00
2018-02-22T20:12:16.210Z,56.38
2018-02-22T20:14:44.328Z,57.28
2018-02-22T20:17:12.444Z,56.84
2018-02-22T20:19:40.563Z,56.95
2018-02-22T20:22:08.681Z,57.24
2018-02-22T20:24:36.813Z,56.14
2018-02-22T20:27:04.938Z,56.47
2018-02-22T20:29:33.057Z,56.96
2018-02-22T20:32:05.052Z,57.16
2018-02-22T20:34:33.181Z,56.78
2018-02-22T20:37:01.327Z,57.72
2018-02-22T20:39:29.459Z,57.73
2018-02-22T20:41:57.578Z,57.96
2018-02-22T20:44:25.693Z,57.84
2018-02-22T20:46:53.829Z,58.43
2018-02-22T20:49:21.973Z,57.96
2018-02-22T20:51:51.950Z,58.27
2018-02-22T20:54:20.089Z,58.94
2018-02-22T20:56:48.201Z,64.62
2018-02-22T20:59:17.063Z,58.78
2018-02-22T21:01:45.158Z,59.42
2018-02-22T21:04:14.176Z,59.35
2018-02-22T21:06:42.310Z,60.06
2018-02-22T21:09:10.462Z,59.29
2018-02-22T21:11:38.599Z,60.31
2018-02-22T21:14:06.721Z,60.16
2018-02-22T21:16:34.824Z,59.45
2018-02-22T21:19:02.958Z,60.42
2018-02-22T21:21:31.065Z,60.23
2018-02-22T21:23:59.196Z,60.72
2018-02-22T21:26:27.323Z,59.92
2018-02-22T21:28:55.435Z,60.79
2018-02-22T21:31:23.603Z,61.50
2018-02-22T21:33:51.721Z,61.81
2018-02-22T21:36:19.866Z,61.59
2018-02-22T21:38:47.962Z,61.29
2018-02-22T21:41:16.087Z,62.26
2018-02-22T21:43:44.223Z,61.66
2018-02-22T21:46:13.245Z,62.05
2018-02-22T21:48:41.390Z,61.90
2018-02-22T21:51:12.765Z,62.08
2018-02-22T21:53:40.909Z,64.00
2018-02-22T21:56:09.046Z,62.40
2018-02-22T21:58:37.145Z,62.62
2018-02-22T22:01:05.297Z,62.67
2018-02-22T22:03:33.408Z,62.41
2018-02-22T22:06:01.702Z,63.91
2018-02-22T22:08:29.811Z,63.16
2018-02-22T22:10:57.916Z,63.91
2018-02-22T22:13:26.035Z,64.42
2018-02-22T22:15:54.152Z,64.71
2018-02-22T22:18:22.280Z,65.48
2018-02-22T22:20:50.392Z,65.17
2018-02-22T22:23:18.515Z,64.74
2018-02-22T22:25:46.644Z,64.88
2018-02-22T22:28:14.775Z,65.00
2018-02-22T22:30:42.893Z,64.96
2018-02-22T22:33:10.999Z,65.19
2018-02-22T22:35:39.124Z,65.84
2018-02-22T22:38:07.232Z,66.41
2018-02-22T22:40:35.369Z,66.32
2018-02-22T22:43:03.484Z,65.49
2018-02-22T22:45:31.600Z,66.43
2018-02-22T22:47:59.715Z,66.45
2018-02-22T22:50:27.837Z,67.45
2018-02-22T22:52:55.967Z,67.42
2018-02-22T22:55:24.077Z,67.89
2018-02-22T22:57:52.275Z,67.73
2018-02-22T23:00:22.325Z,67.99
2018-02-22T23:02:50.455Z,68.02
2018-02-22T23:05:18.593Z,67.82
2018-02-22T23:07:46.715Z,67.79
2018-02-22T23:10:14.833Z,68.82
2018-02-22T23:12:42.961Z,68.49
2018-02-22T23:15:11.076Z,69.16
2018-02-22T23:17:39.191Z,69.35
2018-02-22T23:20:07.329Z,69.08
2018-02-22T23:22:35.431Z,68.66
2018-02-22T23:25:03.535Z,68.76
2018-02-22T23:27:31.709Z,68.33
2018-02-22T23:29:59.822Z,68.90
2018-02-22T23:32:27.959Z,69.37
2018-02-22T23:34:56.086Z,69.42
2018-02-22T23:37:24.193Z,69.70
2018-02-22T23:39:52.330Z,69.34
2018-02-22T23:42:23.823Z,69.32
2018-02-22T23:44:51.956Z,69.22
2018-02-22T23:47:20.067Z,69.82
2018-02-22T23:49:48.176Z,70.20
2018-02-22T23:52:16.325Z,70.26
2018-02-22T23:54:44.441Z,70.59
2018-02-22T23:57:12.565Z,70.68
2018-02-22T23:59:40.691Z,71.16
